createdAt,value
2018-06-03T00:00:47.740Z,36.47
2018-06-03T00:03:15.142Z,39.47
2018-06-03T00:05:42.536Z,44.07
2018-06-03T00:08:09.969Z,39.90
2018-06-03T00:10:37.436Z,41.17
2018-06-03T00:13:04.832Z,42.53
2018-06-03T00:15:32.232Z,40.10
2018-06-03T00:17:59.641Z,41.60
2018-06-03T00:23:55.013Z,49.20
2018-06-03T00:26:23.094Z,46.57
2018-06-03T00:28:51.129Z,45.20
2018-06-03T00:31:19.138Z,48.37
2018-06-03T00:33:47.145Z,49.17
2018-06-03T00:36:26.826Z,48.57
2018-06-03T00:38:54.849Z,45.47
2018-06-03T00:41:22.868Z,43.70
2018-06-03T00:43:50.950Z,48.17
2018-06-03T00:46:18.964Z,43.00
2018-06-03T00:48:46.970Z,46.03
2018-06-03T00:51:15.094Z,47.73
2018-06-03T00:53:43.097Z,46.80
2018-06-03T00:56:16.316Z,50.27
2018-06-03T00:58:44.353Z,47.37
2018-06-03T01:01:12.362Z,48.63
2018-06-03T01:03:40.392Z,48.07
2018-06-03T01:06:08.429Z,47.50
2018-06-03T01:08:36.434Z,51.23
2018-06-03T01:11:04.440Z,48.10
2018-06-03T01:13:32.449Z,52.50
2018-06-03T01:16:00.512Z,50.07
2018-06-03T01:18:28.506Z,54.40
2018-06-03T01:20:56.520Z,49.60
2018-06-03T01:23:24.614Z,48.37
2018-06-03T01:25:52.633Z,53.00
2018-06-03T01:28:20.649Z,52.93
2018-06-03T01:30:48.670Z,52.07
2018-06-03T01:33:16.709Z,51.30
2018-06-03T01:35:44.745Z,53.50
2018-06-03T01:38:12.801Z,51.47
2018-06-03T01:40:40.849Z,52.47
2018-06-03T01:43:08.893Z,48.50
2018-06-03T01:45:36.974Z,48.97
2018-06-03T01:48:05.053Z,49.13
2018-06-03T01:50:33.097Z,48.50
2018-06-03T01:53:01.142Z,48.50
2018-06-03T01:55:29.213Z,49.27
2018-06-03T01:57:57.266Z,44.37
2018-06-03T02:00:25.260Z,47.37
2018-06-03T02:02:53.313Z,46.43
2018-06-03T02:05:21.365Z,49.10
2018-06-03T02:07:49.369Z,50.87
2018-06-03T02:10:17.381Z,47.57
2018-06-03T02:12:46.428Z,47.00
2018-06-03T02:15:14.461Z,46.60
2018-06-03T02:17:42.517Z,48.27
2018-06-03T02:20:10.546Z,49.20
2018-06-03T02:22:38.557Z,46.07
2018-06-03T02:25:06.578Z,46.83
2018-06-03T02:27:34.620Z,47.13
2018-06-03T02:30:02.670Z,47.00
2018-06-03T02:32:30.695Z,48.83
2018-06-03T02:34:58.732Z,47.73
2018-06-03T02:37:26.781Z,47.07
2018-06-03T02:39:55.725Z,47.47
2018-06-03T02:42:23.777Z,48.57
2018-06-03T02:44:51.805Z,47.97
2018-06-03T02:47:19.786Z,52.23
2018-06-03T02:49:47.811Z,46.77
2018-06-03T02:52:15.854Z,46.27
2018-06-03T02:54:43.866Z,47.07
2018-06-03T02:57:11.874Z,47.30
2018-06-03T02:59:39.889Z,48.00
2018-06-03T03:02:07.931Z,44.43
2018-06-03T03:04:35.938Z,45.77
2018-06-03T03:07:03.946Z,47.60
2018-06-03T03:09:31.948Z,48.67
2018-06-03T03:12:00.005Z,45.43
2018-06-03T03:14:28.016Z,44.90
2018-06-03T03:16:56.044Z,45.53
2018-06-03T03:19:24.106Z,45.27
2018-06-03T03:21:52.283Z,47.20
2018-06-03T03:24:20.354Z,46.50
2018-06-03T03:26:48.385Z,47.70
2018-06-03T03:29:16.381Z,47.90
2018-06-03T03:31:44.415Z,48.60
2018-06-03T03:34:12.425Z,49.30
2018-06-03T03:36:40.437Z,51.70
2018-06-03T03:39:08.456Z,49.10
2018-06-03T03:41:36.494Z,51.07
2018-06-03T03:44:04.573Z,49.27
2018-06-03T03:46:32.650Z,48.67
2018-06-03T03:49:00.681Z,50.67
2018-06-03T03:51:28.742Z,50.57
2018-06-03T03:53:56.760Z,47.10
2018-06-03T03:56:24.798Z,48.37
2018-06-03T03:58:52.889Z,50.67
2018-06-03T04:01:20.885Z,50.57
2018-06-03T04:03:49.087Z,52.43
2018-06-03T04:06:17.125Z,49.20
2018-06-03T04:08:45.126Z,49.23
2018-06-03T04:11:13.181Z,46.47
2018-06-03T04:13:41.276Z,47.40
2018-06-03T04:16:09.335Z,47.00
2018-06-03T04:18:37.372Z,46.50
2018-06-03T04:21:05.405Z,48.40
2018-06-03T04:23:33.433Z,45.07
2018-06-03T04:26:01.462Z,48.47
2018-06-03T04:28:29.539Z,46.53
2018-06-03T04:30:57.528Z,46.80
2018-06-03T04:33:25.549Z,44.53
2018-06-03T04:35:53.621Z,47.87
2018-06-03T04:38:22.261Z,50.00
2018-06-03T04:40:50.326Z,46.50
2018-06-03T04:43:18.383Z,46.30
2018-06-03T04:45:46.418Z,45.87
2018-06-03T04:48:14.417Z,47.87
2018-06-03T04:50:42.481Z,44.17
2018-06-03T04:53:10.493Z,47.77
2018-06-03T04:55:38.635Z,48.20
2018-06-03T04:58:06.670Z,48.23
2018-06-03T05:00:34.692Z,46.53
2018-06-03T05:03:02.698Z,47.00
2018-06-03T05:05:30.750Z,46.80
2018-06-03T05:07:58.845Z,48.57
2018-06-03T05:10:26.868Z,45.87
2018-06-03T05:12:54.940Z,45.50
2018-06-03T05:15:22.970Z,43.93
2018-06-03T05:17:50.968Z,44.00
2018-06-03T05:20:18.981Z,44.50
2018-06-03T05:22:47.013Z,47.73
2018-06-03T05:25:15.025Z,44.43
2018-06-03T05:27:43.036Z,45.43
2018-06-03T05:30:11.074Z,43.50
2018-06-03T05:32:39.129Z,45.57
2018-06-03T05:35:07.165Z,45.17
2018-06-03T05:37:35.314Z,43.87
2018-06-03T05:40:03.329Z,45.70
2018-06-03T05:42:31.423Z,44.60
2018-06-03T05:44:59.410Z,47.03
2018-06-03T05:47:27.472Z,47.93
2018-06-03T05:49:55.491Z,48.10
2018-06-03T05:52:23.524Z,48.80
2018-06-03T05:54:51.521Z,47.40
2018-06-03T05:57:19.536Z,49.27
2018-06-03T05:59:47.578Z,48.87
2018-06-03T06:02:15.697Z,48.80
2018-06-03T06:04:43.769Z,50.93
2018-06-03T06:07:11.783Z,51.47
2018-06-03T06:09:39.827Z,50.63
2018-06-03T06:12:07.882Z,48.37
2018-06-03T06:14:35.976Z,47.40
2018-06-03T06:17:04.019Z,47.40
2018-06-03T06:19:32.014Z,48.27
2018-06-03T06:22:00.044Z,46.60
2018-06-03T06:24:28.065Z,47.00
2018-06-03T06:26:56.129Z,48.30
2018-06-03T06:29:24.150Z,48.50
2018-06-03T06:31:52.198Z,46.17
2018-06-03T06:34:20.202Z,48.20
2018-06-03T06:36:48.222Z,50.60
2018-06-03T06:39:16.298Z,52.73
2018-06-03T06:41:44.329Z,51.70
2018-06-03T06:44:12.347Z,52.20
2018-06-03T06:46:40.361Z,50.80
2018-06-03T06:49:08.385Z,52.77
2018-06-03T06:51:36.513Z,53.87
2018-06-03T06:54:04.525Z,49.40
2018-06-03T06:56:32.549Z,54.70
2018-06-03T06:59:00.581Z,54.53
2018-06-03T07:01:28.613Z,56.47
2018-06-03T07:03:56.713Z,46.97
2018-06-03T07:06:24.731Z,48.43
2018-06-03T07:08:52.748Z,43.60
2018-06-03T07:11:20.783Z,43.30
2018-06-03T07:13:48.821Z,45.63
2018-06-03T07:16:16.861Z,48.20
2018-06-03T07:18:44.865Z,47.40
2018-06-03T07:21:12.882Z,45.77
2018-06-03T07:23:40.892Z,46.70
2018-06-03T07:26:08.925Z,48.03
2018-06-03T07:28:37.030Z,47.60
2018-06-03T07:31:05.063Z,49.17
2018-06-03T07:33:33.078Z,47.67
2018-06-03T07:36:01.093Z,45.10
2018-06-03T07:38:29.161Z,46.10
2018-06-03T07:40:57.205Z,45.93
2018-06-03T07:43:25.235Z,42.00
2018-06-03T07:45:53.288Z,45.13
2018-06-03T07:48:21.517Z,46.57
2018-06-03T07:50:49.653Z,44.07
2018-06-03T07:53:17.729Z,46.37
2018-06-03T07:55:45.822Z,44.40
2018-06-03T07:58:13.822Z,43.67
2018-06-03T08:00:41.813Z,45.37
2018-06-03T08:03:09.830Z,43.83
2018-06-03T08:05:37.864Z,45.87
2018-06-03T08:08:05.908Z,45.70
2018-06-03T08:10:33.950Z,46.00
2018-06-03T08:13:01.955Z,44.90
2018-06-03T08:15:30.125Z,44.80
2018-06-03T08:17:58.081Z,45.60
2018-06-03T08:20:26.153Z,44.87
2018-06-03T08:22:54.322Z,43.30
2018-06-03T08:25:22.281Z,44.67
2018-06-03T08:27:50.297Z,43.43
2018-06-03T08:30:18.299Z,45.12
2018-06-03T08:32:46.318Z,44.87
2018-06-03T08:35:14.332Z,44.00
2018-06-03T08:37:42.414Z,46.47
2018-06-03T08:40:10.445Z,44.33
2018-06-03T08:42:38.548Z,43.47
2018-06-03T08:45:06.589Z,38.83
2018-06-03T08:47:34.605Z,39.13
2018-06-03T08:50:02.762Z,39.27
2018-06-03T08:52:30.785Z,37.50
2018-06-03T08:54:58.809Z,36.17
2018-06-03T08:57:26.944Z,36.33
2018-06-03T08:59:55.045Z,35.53
2018-06-03T09:02:23.090Z,33.87
2018-06-03T09:04:51.085Z,35.37
2018-06-03T09:07:19.094Z,36.30
2018-06-03T09:09:47.106Z,35.60
2018-06-03T09:12:15.136Z,37.07
2018-06-03T09:14:43.160Z,34.63
2018-06-03T09:17:11.168Z,31.83
2018-06-03T09:19:39.194Z,33.53
2018-06-03T09:22:07.251Z,33.27
2018-06-03T09:24:35.290Z,31.60
2018-06-03T09:27:03.291Z,31.90
2018-06-03T09:29:31.322Z,34.67
2018-06-03T09:31:59.333Z,32.53
2018-06-03T09:34:27.325Z,33.53
2018-06-03T09:36:55.329Z,29.33
2018-06-03T09:39:23.322Z,29.30
2018-06-03T09:41:51.325Z,26.70
2018-06-03T09:44:19.331Z,31.63
2018-06-03T09:46:47.357Z,30.57
2018-06-03T09:49:15.358Z,26.70
2018-06-03T09:51:43.366Z,24.53
2018-06-03T09:54:11.384Z,27.43
2018-06-03T09:56:39.488Z,31.97
2018-06-03T09:59:07.530Z,28.43
2018-06-03T10:01:35.545Z,23.00
2018-06-03T10:04:03.570Z,22.40
2018-06-03T10:06:31.622Z,21.83
2018-06-03T10:08:59.757Z,21.53
2018-06-03T10:11:27.777Z,21.17
2018-06-03T10:13:55.812Z,20.17
2018-06-03T10:16:23.865Z,19.23
2018-06-03T10:18:51.926Z,20.13
2018-06-03T10:21:19.951Z,19.60
2018-06-03T10:23:47.973Z,20.70
2018-06-03T10:26:15.981Z,19.50
2018-06-03T10:28:44.037Z,16.97
2018-06-03T10:31:12.007Z,18.87
2018-06-03T10:33:40.053Z,19.40
2018-06-03T10:36:08.046Z,16.53
2018-06-03T10:38:36.090Z,14.67
2018-06-03T10:41:04.092Z,17.40
2018-06-03T10:43:32.114Z,15.50
2018-06-03T10:46:00.133Z,17.77
2018-06-03T10:48:28.146Z,14.03
2018-06-03T10:50:56.246Z,12.87
2018-06-03T10:53:24.243Z,15.17
2018-06-03T10:55:52.278Z,17.63
2018-06-03T10:58:20.294Z,16.47
2018-06-03T11:00:48.307Z,18.33
2018-06-03T11:03:16.406Z,19.13
2018-06-03T11:05:44.964Z,18.53
2018-06-03T11:08:12.985Z,19.73
2018-06-03T11:10:40.976Z,21.17
2018-06-03T11:13:09.034Z,21.00
2018-06-03T11:15:37.025Z,21.33
2018-06-03T11:18:05.681Z,21.60
2018-06-03T11:20:33.705Z,20.53
2018-06-03T11:23:01.773Z,21.33
2018-06-03T11:25:29.818Z,22.70
2018-06-03T11:27:57.852Z,22.23
2018-06-03T11:30:26.308Z,19.43
2018-06-03T11:32:54.321Z,19.30
2018-06-03T11:35:22.344Z,21.77
2018-06-03T11:37:50.382Z,20.70
2018-06-03T11:40:18.430Z,18.97
2018-06-03T11:42:46.472Z,15.83
2018-06-03T11:45:14.471Z,18.73
2018-06-03T11:47:42.501Z,19.30
2018-06-03T11:50:10.519Z,17.43
2018-06-03T11:52:38.588Z,18.10
2018-06-03T11:55:06.617Z,16.90
2018-06-03T11:57:46.329Z,16.47
2018-06-03T12:00:14.370Z,15.67
2018-06-03T12:02:42.385Z,15.70
2018-06-03T12:05:10.411Z,13.90
2018-06-03T12:07:38.452Z,16.20
2018-06-03T12:10:06.517Z,15.70
2018-06-03T12:12:34.520Z,17.27
2018-06-03T12:15:02.593Z,17.10
2018-06-03T12:17:30.624Z,17.90
2018-06-03T12:19:58.690Z,18.20
2018-06-03T12:22:26.777Z,16.83
2018-06-03T12:24:54.847Z,18.63
2018-06-03T12:27:22.830Z,17.83
2018-06-03T12:29:50.865Z,16.70
2018-06-03T12:32:18.881Z,19.10
2018-06-03T12:34:46.934Z,18.23
2018-06-03T12:37:15.046Z,17.10
2018-06-03T12:39:43.087Z,17.50
2018-06-03T12:42:11.125Z,17.80
2018-06-03T12:44:39.157Z,19.17
2018-06-03T12:47:07.170Z,17.80
2018-06-03T12:49:35.232Z,19.67
2018-06-03T12:52:03.271Z,18.07
2018-06-03T12:54:31.294Z,17.07
2018-06-03T12:56:59.330Z,18.07
2018-06-03T12:59:27.369Z,18.07
2018-06-03T13:01:55.865Z,17.57
2018-06-03T13:04:23.882Z,18.70
2018-06-03T13:06:51.876Z,18.53
2018-06-03T13:09:19.938Z,17.20
2018-06-03T13:11:48.058Z,17.90
2018-06-03T13:14:16.210Z,17.30
2018-06-03T13:16:44.223Z,16.33
2018-06-03T13:19:12.385Z,16.87
2018-06-03T13:21:40.485Z,16.07
2018-06-03T13:24:08.501Z,15.53
2018-06-03T13:26:37.044Z,15.80
2018-06-03T13:29:05.125Z,14.00
2018-06-03T13:31:33.134Z,16.67
2018-06-03T13:34:01.150Z,15.90
2018-06-03T13:36:29.164Z,17.70
2018-06-03T13:38:57.210Z,15.83
2018-06-03T13:41:25.258Z,18.10
2018-06-03T13:43:53.286Z,16.30
2018-06-03T13:46:21.434Z,16.63
2018-06-03T13:48:49.492Z,18.07
2018-06-03T13:51:17.601Z,14.93
2018-06-03T13:53:45.634Z,17.47
2018-06-03T13:56:14.569Z,16.37
2018-06-03T13:58:42.587Z,16.63
2018-06-03T14:01:10.609Z,16.50
2018-06-03T14:03:38.642Z,15.90
2018-06-03T14:06:06.738Z,15.90
2018-06-03T14:08:34.847Z,15.70
2018-06-03T14:11:02.889Z,14.30
2018-06-03T14:13:30.912Z,14.30
2018-06-03T14:15:58.956Z,13.87
2018-06-03T14:18:26.969Z,14.10
2018-06-03T14:20:55.005Z,15.63
2018-06-03T14:23:23.052Z,16.50
2018-06-03T14:25:51.054Z,20.70
2018-06-03T14:28:19.068Z,17.60
2018-06-03T14:30:47.077Z,19.73
2018-06-03T14:33:15.138Z,18.00
2018-06-03T14:35:43.142Z,18.07
2018-06-03T14:38:11.244Z,18.63
2018-06-03T14:40:39.229Z,18.10
2018-06-03T14:43:07.245Z,17.80
2018-06-03T14:45:35.278Z,17.80
2018-06-03T14:48:03.311Z,16.13
2018-06-03T14:50:31.456Z,15.40
2018-06-03T14:52:59.449Z,18.23
2018-06-03T14:55:27.468Z,17.00
2018-06-03T14:57:55.457Z,16.90
2018-06-03T15:00:23.392Z,16.50
2018-06-03T15:02:51.396Z,17.10
2018-06-03T15:05:20.418Z,16.80
2018-06-03T15:07:48.435Z,16.87
2018-06-03T15:10:16.433Z,16.40
2018-06-03T15:12:44.530Z,18.33
2018-06-03T15:15:12.530Z,18.83
2018-06-03T15:17:40.530Z,19.33
2018-06-03T15:20:08.581Z,18.37
2018-06-03T15:22:36.779Z,18.97
2018-06-03T15:25:04.898Z,18.43
2018-06-03T15:27:33.026Z,18.60
2018-06-03T15:30:01.050Z,18.73
2018-06-03T15:32:29.228Z,18.03
2018-06-03T15:34:57.337Z,16.17
2018-06-03T15:37:25.337Z,17.00
2018-06-03T15:39:53.375Z,17.30
2018-06-03T15:42:21.410Z,19.67
2018-06-03T15:44:49.508Z,17.40
2018-06-03T15:47:17.553Z,16.93
2018-06-03T15:49:45.615Z,16.97
2018-06-03T15:52:13.704Z,17.50
2018-06-03T15:54:41.713Z,18.17
2018-06-03T15:57:09.734Z,17.47
2018-06-03T15:59:37.754Z,17.80
2018-06-03T16:02:05.941Z,18.50
2018-06-03T16:04:33.988Z,18.37
2018-06-03T16:07:01.994Z,16.37
2018-06-03T16:09:30.043Z,19.37
2018-06-03T16:11:58.065Z,18.67
2018-06-03T16:14:26.105Z,18.27
2018-06-03T16:16:54.111Z,17.13
2018-06-03T16:19:22.194Z,16.37
2018-06-03T16:21:50.508Z,16.87
2018-06-03T16:24:18.584Z,16.10
2018-06-03T16:26:47.297Z,16.47
2018-06-03T16:29:15.285Z,17.77
2018-06-03T16:31:43.381Z,15.67
2018-06-03T16:34:11.345Z,15.57
2018-06-03T16:36:39.424Z,17.33
2018-06-03T16:39:07.789Z,16.07
2018-06-03T16:41:35.882Z,18.30
2018-06-03T16:44:04.126Z,17.40
2018-06-03T16:46:32.137Z,17.20
2018-06-03T16:49:00.216Z,18.43
2018-06-03T16:51:28.231Z,18.73
2018-06-03T16:53:56.241Z,17.57
2018-06-03T16:56:24.349Z,17.77
2018-06-03T16:58:52.437Z,15.37
2018-06-03T17:01:20.437Z,16.07
2018-06-03T17:03:48.491Z,15.93
2018-06-03T17:06:16.517Z,15.47
2018-06-03T17:08:44.545Z,16.90
2018-06-03T17:11:12.821Z,15.37
2018-06-03T17:13:40.898Z,15.60
2018-06-03T17:16:08.985Z,16.10
2018-06-03T17:18:36.994Z,15.40
2018-06-03T17:21:05.291Z,16.73
2018-06-03T17:23:33.339Z,14.83
2018-06-03T17:26:01.400Z,17.43
2018-06-03T17:28:29.445Z,16.80
2018-06-03T17:30:57.513Z,16.07
2018-06-03T17:33:25.643Z,17.00
2018-06-03T17:35:53.700Z,15.47
2018-06-03T17:38:21.745Z,14.57
2018-06-03T17:40:49.772Z,16.57
2018-06-03T17:43:17.832Z,17.90
2018-06-03T17:45:45.885Z,18.20
2018-06-03T17:48:13.934Z,19.43
2018-06-03T17:50:42.985Z,21.23
2018-06-03T17:53:11.019Z,19.57
2018-06-03T17:55:39.081Z,18.83
2018-06-03T17:58:07.274Z,19.90
2018-06-03T18:03:00.205Z,20.20
2018-06-03T18:05:28.235Z,20.00
2018-06-03T18:07:56.239Z,19.53
2018-06-03T18:10:24.345Z,19.63
2018-06-03T18:12:52.408Z,19.10
2018-06-03T18:15:20.438Z,18.10
2018-06-03T18:17:48.470Z,19.33
2018-06-03T18:20:16.557Z,19.53
2018-06-03T18:22:44.558Z,19.13
2018-06-03T18:25:12.585Z,18.40
2018-06-03T18:27:40.613Z,17.27
2018-06-03T18:30:08.638Z,18.30
2018-06-03T18:32:36.695Z,19.00
2018-06-03T18:35:04.707Z,17.90
2018-06-03T18:37:32.761Z,18.50
2018-06-03T18:40:00.988Z,19.00
2018-06-03T18:42:29.014Z,17.63
2018-06-03T18:44:57.071Z,19.40
2018-06-03T18:47:25.122Z,18.00
2018-06-03T18:49:53.125Z,18.70
2018-06-03T18:52:21.273Z,16.93
2018-06-03T18:54:49.298Z,18.10
2018-06-03T18:57:17.310Z,17.77
2018-06-03T18:59:45.358Z,17.80
2018-06-03T19:02:13.401Z,17.20
2018-06-03T19:04:41.425Z,17.77
2018-06-03T19:07:09.453Z,18.30
2018-06-03T19:09:37.487Z,16.93
2018-06-03T19:12:05.538Z,17.17
2018-06-03T19:14:33.614Z,17.93
2018-06-03T19:17:01.651Z,19.00
2018-06-03T19:19:29.677Z,18.67
2018-06-03T19:21:57.730Z,18.63
2018-06-03T19:24:26.461Z,19.27
2018-06-03T19:26:54.506Z,19.27
2018-06-03T19:29:22.896Z,17.53
2018-06-03T19:31:50.923Z,18.70
2018-06-03T19:34:18.957Z,18.60
2018-06-03T19:36:47.010Z,18.47
2018-06-03T19:39:15.009Z,18.27
2018-06-03T19:41:43.021Z,17.93
2018-06-03T19:44:11.048Z,19.60
2018-06-03T19:46:39.071Z,21.13
2018-06-03T19:49:07.061Z,21.20
2018-06-03T19:51:35.136Z,19.60
2018-06-03T19:54:03.141Z,17.30
2018-06-03T19:56:31.165Z,17.53
2018-06-03T19:58:59.233Z,18.83
2018-06-03T20:01:27.281Z,18.47
2018-06-03T20:03:55.330Z,18.90
2018-06-03T20:06:23.449Z,18.10
2018-06-03T20:08:51.376Z,19.43
2018-06-03T20:11:19.402Z,17.60
2018-06-03T20:13:47.510Z,17.87
2018-06-03T20:16:15.517Z,18.87
2018-06-03T20:18:43.615Z,18.50
2018-06-03T20:21:11.622Z,18.77
2018-06-03T20:23:39.647Z,18.33
2018-06-03T20:26:07.713Z,18.73
2018-06-03T20:28:35.753Z,17.87
2018-06-03T20:31:03.764Z,18.40
2018-06-03T20:33:31.816Z,18.50
2018-06-03T20:35:59.808Z,20.00
2018-06-03T20:38:27.904Z,20.40
2018-06-03T20:40:55.943Z,20.60
2018-06-03T20:43:24.881Z,19.90
2018-06-03T20:45:52.881Z,19.47
2018-06-03T20:48:20.883Z,20.60
2018-06-03T20:50:48.908Z,20.83
2018-06-03T20:53:17.972Z,21.00
2018-06-03T20:55:46.014Z,21.20
2018-06-03T20:58:14.047Z,21.80
2018-06-03T21:00:42.081Z,21.80
2018-06-03T21:03:10.133Z,21.70
2018-06-03T21:05:38.151Z,21.43
2018-06-03T21:08:06.145Z,18.27
2018-06-03T21:10:34.171Z,20.17
2018-06-03T21:13:02.191Z,20.20
2018-06-03T21:15:30.242Z,20.00
2018-06-03T21:17:58.277Z,20.80
2018-06-03T21:20:26.329Z,21.67
2018-06-03T21:22:54.344Z,20.07
2018-06-03T21:25:22.358Z,21.03
2018-06-03T21:27:50.421Z,20.40
2018-06-03T21:30:18.477Z,23.07
2018-06-03T21:32:46.512Z,21.87
2018-06-03T21:35:14.543Z,25.00
2018-06-03T21:37:42.599Z,25.80
2018-06-03T21:40:10.636Z,22.20
2018-06-03T21:42:38.650Z,23.90
2018-06-03T21:45:06.650Z,22.83
2018-06-03T21:47:34.638Z,25.60
2018-06-03T21:50:02.697Z,23.87
2018-06-03T21:52:30.705Z,24.70
2018-06-03T21:54:59.795Z,23.53
2018-06-03T21:57:27.950Z,23.80
2018-06-03T21:59:55.975Z,24.60
2018-06-03T22:02:23.985Z,23.33
2018-06-03T22:04:52.029Z,23.77
2018-06-03T22:07:20.038Z,24.97
2018-06-03T22:09:48.066Z,22.20
2018-06-03T22:12:16.109Z,27.17
2018-06-03T22:14:44.155Z,25.80
2018-06-03T22:17:12.172Z,25.37
2018-06-03T22:19:40.191Z,23.67
2018-06-03T22:22:08.215Z,22.27
2018-06-03T22:24:36.217Z,24.27
2018-06-03T22:27:04.235Z,23.20
2018-06-03T22:29:32.259Z,25.27
2018-06-03T22:32:00.289Z,26.10
2018-06-03T22:34:28.294Z,23.70
2018-06-03T22:36:56.301Z,24.00
2018-06-03T22:39:24.345Z,24.60
2018-06-03T22:41:52.376Z,26.37
2018-06-03T22:44:20.420Z,25.00
2018-06-03T22:46:48.455Z,26.00
2018-06-03T22:49:16.516Z,25.53
2018-06-03T22:51:44.532Z,25.40
2018-06-03T22:54:12.560Z,25.10
2018-06-03T22:56:52.004Z,26.90
2018-06-03T22:59:20.442Z,25.50
2018-06-03T23:01:48.470Z,25.50
2018-06-03T23:04:16.553Z,25.37
2018-06-03T23:06:44.557Z,24.10
2018-06-03T23:09:12.614Z,26.60
2018-06-03T23:11:40.650Z,24.70
2018-06-03T23:14:08.644Z,25.90
2018-06-03T23:16:36.706Z,24.53
2018-06-03T23:19:04.793Z,25.47
2018-06-03T23:21:32.789Z,23.53
2018-06-03T23:24:00.821Z,22.90
2018-06-03T23:26:28.849Z,21.50
2018-06-03T23:28:56.886Z,25.03
2018-06-03T23:31:24.886Z,22.30
2018-06-03T23:33:53.521Z,22.77
2018-06-03T23:36:21.568Z,21.27
2018-06-03T23:38:49.623Z,23.03
2018-06-03T23:41:17.667Z,22.77
2018-06-03T23:43:45.663Z,21.90
2018-06-03T23:46:13.676Z,23.40
2018-06-03T23:48:41.718Z,22.50
2018-06-03T23:51:09.734Z,22.40
2018-06-03T23:53:37.748Z,21.97
2018-06-03T23:56:05.773Z,23.20
2018-06-03T23:58:33.768Z,22.80
